Skip Navigation Links
NOAA logo - Click to go to the NOAA homepage
NOAA's National Weather Service
Alaska Aviation Weather Unit
  NWS logo - Click to go to the NWS homepage
Left Navbar Graphic     03 AKDT = 11 GMT

   
NOAA is celebrating 200 years of science, service, and stewardship. Visit the NOAA 200th celebration Web site to learn more.
USA.gov is the U.S. Government's official Web portal to all Federal, state and local government Web resources and services.
Facebook
NWS on Facebook

Important Change Regarding the AAWU Web Presence

 

Over the last several months, the AAWU has been working to navigate its webpages to a nationally supported server. Security, as well as other needs, have necessitated the change.  We have been given an extension for the site changeover while we diligently work at addressing feedback received. As of July 14, 2017, aawu.arh.noaa.gov will be discontinued. The new AAWU web address is weather.gov/aawu. It is now live and will run in-parallel with the old site until it is discontinued on July 14, 2017. Please continue to send any feedback or questions regarding the new webpages to nws.ar.aawu.webauthors@noaa.gov.  Thank you for your patience during this time of transition.
AAWU Home :: Display TAF Add Bookmark
PAIK 230643Z AUTO 21007KT 4SM -RA BR SCT007 BKN010 OVC040 07/07
     A2967 RMK AO2 CIG 009V014 P0003=

METAR PAIK 230656Z AUTO 22008KT 4SM -RA BR FEW007 SCT012 OVC029 07/07
     A2967 RMK AO2 SLP051 P0003 T00720067=

SPECI PAIK 230719Z AUTO 22007KT 8SM -RA FEW007 SCT018 OVC040 07/07 A2967
     RMK AO2 P0001=

SPECI PAIK 230734Z AUTO 22008KT 6SM -RA BR SCT017 BKN025 OVC040 07/06
     A2967 RMK AO2 P0001=

METAR PAIK 230756Z AUTO 22006KT 5SM -RA BR BKN015 BKN019 OVC024 07/06
     A2967 RMK AO2 SLP051 P0001 T00670061=

SPECI PAIK 230811Z AUTO 22005KT 10SM OVC013 07/06 A2967 RMK AO2 RAE03
     P0000=

SPECI PAIK 230839Z AUTO 22005KT 4SM -RA BR OVC009 07/06 A2967 RMK AO2
     RAE03B25 CIG 005V013 P0000=

METAR PAIK 230856Z AUTO 22006KT 3SM -RA BR OVC007 07/06 A2967 RMK
 AO2 RAE03B25 CIG 005V011 SLP051 P0001 60005 T00670061 400940067
 56001=

SPECI PAIK 230918Z AUTO 23005KT 3SM -RA BR OVC005 07/06 A2967 RMK AO2
     CIG 004V009 P0001=

PAIK 230956Z AUTO 23005KT 5SM -RA BR OVC005 07/06 A2967 RMK AO2
     SLP050 P0001 T00670061=

SPECI PAIK 231024Z AUTO 23005KT 10SM OVC003 07/07 A2967 RMK AO2
 RAE15 P0000=

METAR PAIK 231056Z AUTO 24004KT 10SM BKN003 BKN007 OVC039 07/07
 A2967 RMK AO2 RAE15 SLP050 P0000 T00670067=

SPECI PAIK 231116Z AUTO 00000KT 10SM BKN005 OVC040 07/06 A2967 RMK
 AO2 CIG 004V007=

SPECI PAIK 231135Z AUTO 00000KT 10SM BKN003 OVC040 07/06 A2967 RMK
     AO2=


NOAA's National Weather Service
Alaska Aviation Weather Unit
6930 Sand Lake Road
Anchorage, AK 99502-1845
Disclaimer
Credits
Glossary
Privacy Policy
About Us
Career Opportunities
Contact AAWU Internet Services Site last modified: April, 17th 2012